LKPR/PRG METAR and TAF weather

Enter ICAO airport designator
Station Type Date Time Source
LKPR METAR 2020/01/29 03:30 UTC NOAA

LKPR 290330Z 22017KT CAVOK 00/M03 Q1001 NOSIG


Station Type Date Time Source
LKPR Decoded METAR 2020/01/29 03:30 UTC NOAA

Praha / Ruzyne, Czech Republic (LKPR) 50-06N 014-15E 365M
Jan 28, 2020 - 10:30 PM EST / 2020.01.29 0330 UTC
Wind: from the SW (220 degrees) at 20 MPH (17 KT):0
Visibility: greater than 7 mile(s):0
Temperature: 32 F (0 C)
Windchill: 19 F (-7 C):1
Dew Point: 26 F (-3 C)
Relative Humidity: 80%
Pressure (altimeter): 29.56 in. Hg (1001 hPa)
ob: LKPR 290330Z 22017KT CAVOK 00/M03 Q1001 NOSIG
cycle: 3

Station Type Date Time Source
LKPR TAF 2020/01/28 18:16 UTC NOAA

TAF LKPR 281700Z 2818/3000 22016KT 9999 SCT030
TEMPO 2818/2822 24020G36KT
TEMPO 2818/2820 7000 -SHRA BKN022
TEMPO 2822/3000 26016G28KT
TEMPO 2903/2913 5000 SHSN BKN025

Example: see airport list